Tiempo atmosférico en la estación meteorológica de Castellote, Teruel (755 m.)

Fecha
DESCASC
Temp. máxima en grados centígrados (hora)
DESCASC
Temp. mínima en grados centígrados (hora)
DESCASC
Temp. media en grados centígrados
DESCASC
Racha de viento máxima en m/sg (hora)
DESCASC
Velocidad máxima media en intervalos de 10 minutos(hora)
DESCASC
Precipitaciones diarias en mm
DESCASC
Precipitaciones de 00:00 a 06:00 en mm
DESCASC
Precipitaciones de 06:00 a 12:00 en mm
DESCASC
Precipitaciones de 12:00 a 18:00 en mm
DESCASC
Precipitaciones de 18:00 a 24:00 en mm
DESCASC
17-08-2017 33.8 (17:40) 17.5 (07:40) 25.6 7.5 (16:10) 3.61 (19:10) 0 0 0 0 0
16-08-2017 30.1 (16:30) 17.6 (07:30) 23.9 6.67 (16:30) 3.06 (17:00) 0 0 0 0 0
15-08-2017 31.8 (13:40) 19.3 (00:00) 25.5 18.33 (17:10) 9.72 (17:10) 13.8 0 0 11.8 2
14-08-2017 32.8 (14:30) 17.5 (07:20) 25.1 13.06 (17:50) 8.06 (15:10) 0 0 0 0 0
13-08-2017 31.1 (16:20) 15.3 (00:00) 23.2 9.17 (17:50) 5.56 (16:50) 0 0 0 0 0
12-08-2017 26.8 (16:10) 14.3 (00:00) 20.5 12.5 (17:20) 7.78 (17:10) 0 0 0 0 0
11-08-2017 24.9 (18:10) 11.5 (00:00) 18.2 12.78 (13:10) 7.22 (03:50) 0 0 0 0 0
10-08-2017 21.8 (17:30) 10.5 (00:00) 16.1 16.67 (19:10) 8.61 (19:30) 0 0 0 0 0
09-08-2017 18.9 (14:40) 13.6 (00:00) 16.3 15.28 (19:40) 8.89 (19:00) 0.4 0 0 0.4 0
08-08-2017 30.2 (02:30) 16.7 (00:00) 23.5 17.5 (04:40) 11.11 (03:50) 0 0 0 0 0
07-08-2017 32.8 (14:50) 18.8 (00:00) 25.8 13.89 (17:00) 9.17 (16:10) 0 0 0 0 0
06-08-2017 29.2 (15:40) 16.1 (00:00) 22.7 11.94 (06:30) 6.67 (18:00) 0 0 0 0 0
05-08-2017 33 (15:00) 22.8 (00:00) 27.9 12.78 (16:40) 7.22 (19:10) 0.2 0 0 0.2 0
04-08-2017 34.5 (18:10) 22.2 (00:00) 28.4 12.22 (17:30) 7.22 (16:20) 0 0 0 0 0
03-08-2017 36 (16:00) 20.9 (00:00) 28.4 11.67 (13:30) 6.67 (13:40) 0 0 0 0 0
02-08-2017 30.2 (19:30) 21.7 (00:00) 26 17.5 (12:00) 11.67 (12:00) 0 0 0 0 0
01-08-2017 33.4 (19:30) 19 (00:00) 26.2 11.94 (18:50) 7.78 (18:50) 0 0 0 0 0
31-07-2017 34 (15:50) 18.6 (00:00) 26.3 16.11 (15:30) 9.44 (15:30) 0 0 0 0 0
30-07-2017 36 (15:00) 22.2 (00:00) 29.1 9.17 (16:40) 5.28 (16:50) 0 0 0 0 0
29-07-2017 34.3 (15:50) 19.6 (00:00) 26.9 8.33 (15:40) 5.28 (17:00) 0 0 0 0 0
28-07-2017 33 (18:20) 20.2 (00:00) 26.6 8.61 (16:50) 3.89 (16:00) 0 0 0 0 0
27-07-2017 33.7 (17:50) 17.5 (00:00) 25.6 8.61 (14:50) 5.28 (14:50) 0 0 0 0 0
26-07-2017 29 (17:50) 13.2 (00:00) 21.1 12.5 (01:50) 5.56 (18:10) 0 0 0 0 0
25-07-2017 24.1 (17:20) 14.1 (00:00) 19.1 14.17 (15:00) 7.5 (14:50) 0 0 0 0 0
24-07-2017 26.1 (16:20) 16.6 (00:00) 21.4 17.5 (18:30) 9.17 (19:50) 0 0 0 0 0
23-07-2017 26.1 (14:20) 13.4 (00:00) 19.8 25.28 (15:50) 11.11 (16:00) 27.4 0 0 27.4 0
22-07-2017 29.7 (15:30) 17 (00:00) 23.4 12.5 (15:20) 7.78 (15:20) 0.2 0 0.2 0 0

Gráficas

Temp. máximas Temp. mínimas Temp. medias Precipitaciones Rachas de viento máximas Velocidades máximas media en intervalos de 10 minutos

Datos horarios

Fecha y hora oficial Temperatura (ºC) Velocidad del viento (km/h) Dirección del viento Racha (km/h) Dirección de racha Precipitación (mm) Presión (hPa) Tendencia (hPa) Humedad (%)
2017-08-20 23:00:00 23.2 5 Oeste 7 Oeste 0 -- -- 26
2017-08-20 22:00:00 23.7 2 Oeste 5 Oeste 0 -- -- 26
2017-08-20 21:00:00 24.4 2 Nordeste 19 Este 0 -- -- 25
2017-08-20 20:00:00 26.2 9 Este 19 Este 0 -- -- 23
2017-08-20 19:00:00 27.3 9 Este 31 Este 0 -- -- 23
2017-08-20 18:00:00 27.7 15 Este 27 Este 0 -- -- 25
2017-08-20 17:00:00 27.2 14 Nordeste 28 Este 0 -- -- 25
2017-08-20 16:00:00 28 15 Sudeste 30 Este 0 -- -- 22
2017-08-20 15:00:00 27.7 13 Este 24 Este 0 -- -- 24
2017-08-20 14:00:00 26.7 13 Este 25 Este 0 -- -- 25
2017-08-20 13:00:00 24.5 8 Sudeste 17 Este 0 -- -- 29
2017-08-20 12:00:00 23 9 Este 18 Este 0 -- -- 35
2017-08-20 11:00:00 21.2 10 Este 16 Este 0 -- -- 42
2017-08-20 10:00:00 18.2 3 Nordeste 12 Noroeste 0 -- -- 51
2017-08-20 09:00:00 17.1 4 Este 8 Este 0 -- -- 61
2017-08-20 08:00:00 16.7 0 Calma 20 Oeste 0 -- -- 58
2017-08-20 07:00:00 17.3 16 Oeste 24 Oeste 0 -- -- 47
2017-08-20 06:00:00 17.8 9 Oeste 25 Oeste 0 -- -- 52
2017-08-20 05:00:00 17.9 3 Oeste 15 Oeste 0 -- -- 56
2017-08-20 04:00:00 18.9 5 Sudoeste 12 Oeste 0 -- -- 53
2017-08-20 03:00:00 19.7 5 Oeste 27 Oeste 0 -- -- 49
2017-08-20 02:00:00 20.1 11 Oeste 32 Oeste 0 -- -- 49
2017-08-20 01:00:00 21.2 19 Oeste 30 Sudoeste 0 -- -- 45
2017-08-20 00:00:00 23 19 Noroeste 30 Noroeste 0 -- -- 38
2017-08-19 23:00:00 24.2 13 Noroeste 21 Noroeste 0 -- -- 36
2017-08-19 22:00:00 24.7 4 Nordeste 15 Este 0 -- -- 37
2017-08-19 21:00:00 25.6 13 Nordeste 21 Nordeste 0 -- -- 37
2017-08-19 20:00:00 27.5 5 Este 11 Este 0 -- -- 37
2017-08-19 19:00:00 28.4 5 Este 17 Nordeste 0 -- -- 36
2017-08-19 18:00:00 29 5 Nordeste 22 Nordeste 0 -- -- 36
2017-08-19 17:00:00 28.9 4 Este 31 Este 0 -- -- 36
2017-08-19 16:00:00 28.6 14 Este 38 Este 0 -- -- 37
2017-08-19 15:00:00 28.1 9 Oeste 19 Oeste 0 -- -- 36
2017-08-19 14:00:00 26.6 7 Norte 19 Este 0 -- -- 39
2017-08-19 13:00:00 25.2 13 Este 23 Este 0 -- -- 44
2017-08-19 12:00:00 24 5 Este 20 Oeste 0 -- -- 45
2017-08-19 11:00:00 22.9 5 Sudoeste 15 Este 0 -- -- 49
2017-08-19 10:00:00 21.2 7 Este 12 Este 0 -- -- 53
2017-08-19 09:00:00 19.5 3 Este 8 Este 0 -- -- 60
2017-08-19 08:00:00 18 3 Oeste 15 Noroeste 0 -- -- 61
2017-08-19 07:00:00 18.1 6 Sur 18 Sudoeste 0 -- -- 61
2017-08-19 06:00:00 18.8 4 Oeste 18 Noroeste 0 -- -- 58
2017-08-19 05:00:00 19.2 3 Oeste 7 Sudeste 0 -- -- 59
2017-08-19 04:00:00 19.8 3 Sur 21 Sur 0 -- -- 54
2017-08-19 03:00:00 19.7 5 Nordeste 36 Oeste 0 -- -- 60
2017-08-19 02:00:00 20.1 14 Oeste 30 Oeste 0 -- -- 64
2017-08-19 01:00:00 21 6 Este 36 Oeste 0 -- -- 62
2017-08-19 00:00:00 21.5 19 Oeste 43 Oeste 0 -- -- 60
2017-08-18 23:00:00 22.3 18 Oeste 40 Oeste 0 -- -- 56
2017-08-18 22:00:00 23.8 17 Oeste 36 Noroeste 0 -- -- 53
2017-08-18 21:00:00 26 17 Noroeste 42 Noroeste 0 -- -- 49
2017-08-18 20:00:00 29 20 Noroeste 37 Oeste 0 -- -- 43
2017-08-18 19:00:00 30.8 8 Sudeste 27 Sudeste 0 -- -- 40
2017-08-18 18:00:00 31.8 8 Sudeste 33 Este 0 -- -- 39
2017-08-18 17:00:00 31.4 9 Nordeste 45 Nordeste 0 -- -- 40
2017-08-18 16:00:00 34.4 13 Este 30 Norte 0 -- -- 32
2017-08-18 15:00:00 34.4 8 Nordeste 28 Este 0 -- -- 35
2017-08-18 14:00:00 33.3 9 Este 17 Nordeste 0 -- -- 35
2017-08-18 13:00:00 31.7 4 Nordeste 26 Este 0 -- -- 38
2017-08-18 12:00:00 30.2 12 Este 24 Este 0 -- -- 42
2017-08-18 11:00:00 29 4 Nordeste 12 Nordeste 0 -- -- 46
2017-08-18 10:00:00 26.3 2 Sur 5 Sudoeste 0 -- -- 52
2017-08-18 09:00:00 23.1 2 Noroeste 8 Sur 0 -- -- 62
2017-08-18 08:00:00 21.2 4 Oeste 7 Este 0 -- -- 67
2017-08-18 07:00:00 21 2 Este 7 Este 0 -- -- 67
2017-08-18 06:00:00 21.8 3 Sudeste 7 Sudoeste 0 -- -- 65
2017-08-18 05:00:00 22.4 2 Sudoeste 5 Sur 0 -- -- 60
2017-08-18 04:00:00 22.9 4 Sudoeste 5 Sudoeste 0 -- -- 59
2017-08-18 03:00:00 23.2 4 Sudeste 8 Este 0 -- -- 58
2017-08-18 02:00:00 23.5 5 Sudeste 15 Sur 0 -- -- 58
2017-08-18 01:00:00 23.9 7 Sur 19 Sur 0 -- -- 59
2017-08-18 00:00:00 24.2 7 Sur 14 Sur 0 -- -- 60
2017-08-17 23:00:00 25 6 Sudeste 12 Este 0 -- -- 57
2017-08-17 22:00:00 26.1 6 Sudeste 15 Este 0 -- -- 54
2017-08-17 21:00:00 27.5 8 Este 19 Este 0 -- -- 50
2017-08-17 20:00:00 29.9 10 Sudeste 24 Este 0 -- -- 42
2017-08-17 19:00:00 31.8 9 Sudeste 23 Este 0 -- -- 38
2017-08-17 18:00:00 33.2 11 Sudeste 22 Sudeste 0 -- -- 33
2017-08-17 17:00:00 33.6 6 Este 27 Este 0 -- -- 27
2017-08-17 16:00:00 33.5 8 Sudeste 19 Este 0 -- -- 30
2017-08-17 15:00:00 32.9 5 Noroeste 14 Sudeste 0 -- -- 30
2017-08-17 14:00:00 31 5 Este 13 Este 0 -- -- 29
2017-08-17 13:00:00 29.5 5 Este 13 Este 0 -- -- 30
2017-08-17 12:00:00 27 5 Este 13 Este 0 -- -- 30
2017-08-17 11:00:00 24.4 4 Norte 10 Norte 0 -- -- 44
2017-08-17 10:00:00 22.6 5 Este 10 Nordeste 0 -- -- 58
2017-08-17 09:00:00 19.8 5 Este 9 Este 0 -- -- 67
2017-08-17 08:00:00 18 5 Este 9 Este 0 -- -- 73
2017-08-17 07:00:00 18 5 Este 7 Este 0 -- -- 75
2017-08-17 06:00:00 19.3 0 Calma 4 Oeste 0 -- -- 67
2017-08-17 05:00:00 19.8 0 Calma 7 Este 0 -- -- 65
2017-08-17 04:00:00 20.4 5 Este 10 Este 0 -- -- 63
2017-08-17 03:00:00 21.2 5 Nordeste 10 Este 0 -- -- 60
2017-08-17 02:00:00 22.6 4 Sudoeste 24 Noroeste 0 -- -- 52
2017-08-17 01:00:00 23.6 5 Noroeste 17 Oeste 0 -- -- 52
2017-08-17 00:00:00 24.4 6 Norte 16 Norte 0 -- -- 49
2017-08-16 23:00:00 25.7 6 Oeste 12 Oeste 0 -- -- 45
2017-08-16 22:00:00 26.3 3 Oeste 8 Oeste 0 -- -- 43
2017-08-16 21:00:00 27.3 3 Sudeste 10 Nordeste 0 -- -- 39
2017-08-16 20:00:00 28.8 3 Sudeste 19 Nordeste 0 -- -- 36
2017-08-16 19:00:00 29.2 10 Nordeste 24 Nordeste 0 -- -- 38
2017-08-16 18:00:00 29.7 10 Nordeste 24 Nordeste 0 -- -- 40
2017-08-16 17:00:00 29.5 11 Nordeste 24 Sudeste 0 -- -- 43
2017-08-16 16:00:00 29.9 9 Este 21 Este 0 -- -- 45
2017-08-16 15:00:00 29.3 5 Este 23 Este 0 -- -- 50
2017-08-16 14:00:00 28.2 8 Nordeste 19 Este 0 -- -- 54
2017-08-16 13:00:00 26.5 5 Nordeste 14 Noroeste 0 -- -- 61
2017-08-16 12:00:00 24.6 3 Norte 10 Norte 0 -- -- 65
2017-08-16 11:00:00 22.8 2 Sudeste 6 Sur 0 -- -- 68
2017-08-16 10:00:00 20.5 2 Sur 6 Sudeste 0 -- -- 81
2017-08-16 09:00:00 18.9 3 Sur 6 Norte 0 -- -- 87
2017-08-16 08:00:00 17.8 2 Sudoeste 8 Oeste 0 -- -- 89
2017-08-16 07:00:00 17.9 3 Oeste 7 Oeste 0 -- -- 83
2017-08-16 06:00:00 18.9 3 Nordeste 16 Norte 0 -- -- 78
2017-08-16 05:00:00 19.9 5 Norte 13 Norte 0 -- -- 70
2017-08-16 04:00:00 21 4 Este 7 Este 0 -- -- 66
2017-08-16 03:00:00 20.7 0 Calma 6 Este 0 -- -- 68
2017-08-16 02:00:00 21.5 0 Calma 10 Noroeste 0 -- -- 64
2017-08-16 01:00:00 21.2 2 Noroeste 10 Sudeste 0 -- -- 66
2017-08-16 00:00:00 21.2 5 Sudeste 13 Sudeste 0 -- -- 67
2017-08-15 23:00:00 22.3 7 Sur 28 Sudoeste 0 -- -- 62
2017-08-15 22:00:00 22.6 13 Sudoeste 28 Sudoeste 0 -- -- 58
2017-08-15 21:00:00 21.3 11 Sudeste 58 Sur 0 -- -- 69
2017-08-15 20:00:00 20.8 19 Sudoeste 47 Sudoeste 0 -- -- 70
2017-08-15 19:00:00 19.7 13 Sudoeste 26 Sur 2 -- -- 87
2017-08-15 18:00:00 20.2 8 Noroeste 66 Nordeste 6 -- -- 76
2017-08-15 17:00:00 22.1 31 Oeste 64 Oeste 5.8 -- -- 72
2017-08-15 16:00:00 27 11 Este 20 Este 0 -- -- 53
2017-08-15 15:00:00 28.2 10 Sudeste 24 Este 0 -- -- 44
2017-08-15 14:00:00 30.1 18 Este 31 Este 0 -- -- 38
2017-08-15 13:00:00 31.1 15 Este 31 Este 0 -- -- 33
2017-08-15 12:00:00 31.1 8 Este 21 Este 0 -- -- 27
2017-08-15 11:00:00 27.6 2 Oeste 11 Este 0 -- -- 30
2017-08-15 10:00:00 24.5 5 Este 10 Este 0 -- -- 36
2017-08-15 09:00:00 21.2 4 Este 7 Este 0 -- -- 40
2017-08-15 08:00:00 19.8 3 Sudoeste 9 Sudeste 0 -- -- 38
2017-08-15 07:00:00 20.3 5 Sudeste 9 Sudeste 0 -- -- 39
2017-08-15 06:00:00 21.3 6 Sudeste 13 Sudoeste 0 -- -- 33
2017-08-15 05:00:00 21.3 5 Sur 9 Sudeste 0 -- -- 34
2017-08-15 04:00:00 21.5 6 Sur 19 Sur 0 -- -- 35
2017-08-15 03:00:00 21.8 13 Sur 21 Sur 0 -- -- 36
2017-08-15 02:00:00 21.6 10 Sur 18 Sudoeste 0 -- -- 42
2017-08-15 01:00:00 22.4 12 Sur 18 Sur 0 -- -- 40
2017-08-15 00:00:00 23.2 9 Sur 13 Sur 0 -- -- 41
2017-08-14 23:00:00 23 6 Sudeste 17 Sur 0 -- -- 45
2017-08-14 22:00:00 23.8 10 Sur 23 Sur 0 -- -- 43
2017-08-14 21:00:00 25 10 Sur 25 Este 0 -- -- 40
2017-08-14 20:00:00 26.6 16 Este 40 Sudeste 0 -- -- 38
2017-08-14 19:00:00 28.4 13 Sudeste 42 Este 0 -- -- 31
2017-08-14 18:00:00 29.2 22 Este 47 Este 0 -- -- 33
2017-08-14 17:00:00 30.8 17 Este 36 Este 0 -- -- 36
2017-08-14 16:00:00 31.9 19 Este 44 Este 0 -- -- 30
2017-08-14 15:00:00 32.6 21 Este 36 Nordeste 0 -- -- 24
2017-08-14 14:00:00 32.5 10 Sudeste 35 Este 0 -- -- 21
2017-08-14 13:00:00 31.6 8 Este 35 Este 0 -- -- 22
2017-08-14 12:00:00 29.4 5 Sudeste 17 Este 0 -- -- 25
2017-08-14 11:00:00 27.1 3 Sur 11 Sur 0 -- -- 30
2017-08-14 10:00:00 23.8 5 Sudeste 9 Sur 0 -- -- 36
2017-08-14 09:00:00 20.7 5 Sudeste 13 Sudeste 0 -- -- 44
2017-08-14 08:00:00 17.9 4 Sudeste 9 Sur 0 -- -- 56
2017-08-14 07:00:00 17.9 5 Sudeste 10 Sur 0 -- -- 57
2017-08-14 06:00:00 18.5 4 Sur 8 Sur 0 -- -- 56
2017-08-14 05:00:00 19.5 5 Sudeste 8 Sur 0 -- -- 51
2017-08-14 04:00:00 19.5 5 Sur 15 Sur 0 -- -- 52
2017-08-14 03:00:00 19.8 7 Sur 9 Sur 0 -- -- 57
2017-08-14 02:00:00 20.4 4 Sudeste 9 Sudeste 0 -- -- 59
2017-08-14 01:00:00 21.1 5 Sur 10 Sudeste 0 -- -- 59
2017-08-14 00:00:00 21.8 7 Sudeste 15 Sudeste 0 -- -- 57
2017-08-13 23:00:00 22.6 10 Sudeste 21 Sur 0 -- -- 54
2017-08-13 22:00:00 23.3 6 Sudeste 25 Sur 0 -- -- 53
2017-08-13 21:00:00 24.1 12 Sudeste 28 Sur 0 -- -- 54
2017-08-13 20:00:00 25.1 10 Sudeste 31 Sudeste 0 -- -- 53
2017-08-13 19:00:00 27.1 15 Este 33 Sudeste 0 -- -- 46
2017-08-13 18:00:00 29.3 17 Este 33 Este 0 -- -- 40
2017-08-13 17:00:00 30.5 14 Este 32 Este 0 -- -- 35
2017-08-13 16:00:00 30.6 13 Nordeste 30 Este 0 -- -- 28
2017-08-13 15:00:00 29.7 11 Norte 29 Nordeste 0 -- -- 30
2017-08-13 14:00:00 28.5 7 Este 26 Este 0 -- -- 31
2017-08-13 13:00:00 27.3 14 Este 25 Nordeste 0 -- -- 31
2017-08-13 12:00:00 25.7 6 Noroeste 14 Norte 0 -- -- 33
2017-08-13 11:00:00 23.8 4 Norte 10 Este 0 -- -- 36
2017-08-13 10:00:00 21.2 3 Sudeste 6 Este 0 -- -- 39
2017-08-13 09:00:00 18.2 3 Nordeste 8 Nordeste 0 -- -- 45
2017-08-13 08:00:00 15.4 3 Este 6 Este 0 -- -- 50
2017-08-13 07:00:00 15.9 4 Nordeste 7 Nordeste 0 -- -- 48
2017-08-13 06:00:00 16.4 2 Sudeste 5 Sur 0 -- -- 47
2017-08-13 05:00:00 17.2 0 Calma 3 Este 0 -- -- 44
2017-08-13 04:00:00 18.2 0 Calma 23 Norte 0 -- -- 42
2017-08-13 03:00:00 18.3 3 Este 8 Este 0 -- -- 42
2017-08-13 02:00:00 18.9 7 Este 9 Este 0 -- -- 40
2017-08-13 01:00:00 19.9 4 Este 6 Este 0 -- -- 42
2017-08-13 00:00:00 21.2 3 Sur 5 Sur 0 -- -- 37
2017-08-12 23:00:00 22 0 Calma 8 Sudeste 0 -- -- 35
2017-08-12 22:00:00 23 0 Calma 8 Nordeste 0 -- -- 28
2017-08-12 21:00:00 24 0 Calma 16 Este 0 -- -- 28
2017-08-12 20:00:00 25.5 6 Este 19 Este 0 -- -- 27
2017-08-12 19:00:00 26.1 8 Este 30 Este 0 -- -- 27
2017-08-12 18:00:00 26.6 17 Este 45 Este 0 -- -- 25
2017-08-12 17:00:00 26.4 25 Este 40 Este 0 -- -- 25
2017-08-12 16:00:00 26.6 21 Este 37 Este 0 -- -- 23
2017-08-12 15:00:00 26.1 19 Este 35 Este 0 -- -- 23
2017-08-12 14:00:00 25.3 15 Este 33 Este 0 -- -- 23
2017-08-12 13:00:00 24.1 15 Este 33 Este 0 -- -- 25
2017-08-12 12:00:00 22.7 9 Nordeste 24 Nordeste 0 -- -- 24
2017-08-12 11:00:00 21.2 7 Sudoeste 16 Sudoeste 0 -- -- 28
2017-08-12 10:00:00 19.7 4 Este 16 Nordeste 0 -- -- 35
2017-08-12 09:00:00 16.9 0 Calma 13 Este 0 -- -- 42
2017-08-12 08:00:00 14.7 5 Oeste 13 Norte 0 -- -- 46
2017-08-12 07:00:00 14.6 2 Oeste 10 Sur 0 -- -- 47
2017-08-12 06:00:00 15.3 7 Oeste 18 Noroeste 0 -- -- 44
2017-08-12 05:00:00 15.6 2 Nordeste 13 Sudoeste 0 -- -- 45
2017-08-12 04:00:00 15.8 3 Sudeste 18 Sur 0 -- -- 47
2017-08-12 03:00:00 16.1 10 Oeste 35 Oeste 0 -- -- 48
2017-08-12 02:00:00 16.6 26 Oeste 40 Oeste 0 -- -- 48
2017-08-12 01:00:00 16.7 14 Oeste 24 Oeste 0 -- -- 50
2017-08-12 00:00:00 17.5 3 Este 27 Noroeste 0 -- -- 45
2017-08-11 23:00:00 18.6 10 Noroeste 23 Noroeste 0 -- -- 40
2017-08-11 22:00:00 19.8 11 Oeste 22 Oeste 0 -- -- 35
2017-08-11 21:00:00 21.3 12 Noroeste 32 Noroeste 0 -- -- 32
2017-08-11 20:00:00 23.4 18 Noroeste 36 Oeste 0 -- -- 28
2017-08-11 19:00:00 24.4 14 Noroeste 35 Oeste 0 -- -- 24
2017-08-11 18:00:00 24.8 14 Noroeste 35 Oeste 0 -- -- 21
2017-08-11 17:00:00 24.8 13 Sudoeste 36 Oeste 0 -- -- 23
2017-08-11 16:00:00 23.5 15 Oeste 33 Oeste 0 -- -- 23
2017-08-11 15:00:00 23.1 15 Oeste 31 Oeste 0 -- -- 27
2017-08-11 14:00:00 20.8 15 Oeste 46 Noroeste 0 -- -- 31
2017-08-11 13:00:00 20 13 Noroeste 34 Noroeste 0 -- -- 33
2017-08-11 12:00:00 17.5 15 Oeste 40 Oeste 0 -- -- 41
2017-08-11 11:00:00 15.6 18 Noroeste 40 Noroeste 0 -- -- 48
2017-08-11 10:00:00 13.9 13 Oeste 31 Oeste 0 -- -- 53
2017-08-11 09:00:00 12.9 10 Oeste 30 Noroeste 0 -- -- 57
2017-08-11 08:00:00 11.7 9 Oeste 32 Oeste 0 -- -- 59
2017-08-11 07:00:00 11.6 14 Noroeste 36 Oeste 0 -- -- 57
2017-08-11 06:00:00 12 18 Oeste 41 Oeste 0 -- -- 55
2017-08-11 05:00:00 12.2 19 Oeste 36 Noroeste 0 -- -- 56
2017-08-11 04:00:00 12.4 21 Oeste 39 Noroeste 0 -- -- 60
2017-08-11 03:00:00 12.7 17 Oeste 33 Oeste 0 -- -- 62
2017-08-11 02:00:00 13 12 Oeste 26 Oeste 0 -- -- 62
2017-08-11 01:00:00 13.5 19 Oeste 37 Oeste 0 -- -- 63
2017-08-11 00:00:00 14.6 21 Oeste 41 Noroeste 0 -- -- 59
2017-08-10 23:00:00 15.5 11 Oeste 39 Noroeste 0 -- -- 60
2017-08-10 22:00:00 16.7 15 Noroeste 48 Noroeste 0 -- -- 56
2017-08-10 21:00:00 18 14 Noroeste 47 Noroeste 0 -- -- 50
2017-08-10 20:00:00 20.6 24 Noroeste 60 Noroeste 0 -- -- 44
2017-08-10 19:00:00 21 24 Noroeste 50 Noroeste 0 -- -- 41
2017-08-10 18:00:00 21.2 27 Noroeste 51 Noroeste 0 -- -- 41
2017-08-10 17:00:00 21.4 19 Noroeste 54 Oeste 0 -- -- 40
2017-08-10 16:00:00 21.2 25 Noroeste 47 Noroeste 0 -- -- 40
2017-08-10 15:00:00 21.4 16 Noroeste 52 Oeste 0 -- -- 40
2017-08-10 14:00:00 20 18 Oeste 42 Oeste 0 -- -- 42
2017-08-10 13:00:00 18.5 17 Oeste 53 Oeste 0 -- -- 44
2017-08-10 12:00:00 17.3 16 Noroeste 43 Oeste 0 -- -- 49
2017-08-10 11:00:00 15 15 Noroeste 45 Noroeste 0 -- -- 57
2017-08-10 10:00:00 14.2 12 Oeste 32 Noroeste 0 -- -- 62
2017-08-10 09:00:00 12.1 13 Oeste 35 Oeste 0 -- -- 70
2017-08-10 08:00:00 10.8 5 Sur 32 Oeste 0 -- -- 74
2017-08-10 07:00:00 10.5 7 Oeste 19 Noroeste 0 -- -- 73
2017-08-10 06:00:00 10.8 6 Oeste 38 Oeste 0 -- -- 71
2017-08-10 05:00:00 11.3 8 Norte 31 Oeste 0 -- -- 70
2017-08-10 04:00:00 11.8 20 Noroeste 50 Oeste 0 -- -- 67
2017-08-10 03:00:00 12.4 26 Oeste 58 Oeste 0 -- -- 63
2017-08-10 02:00:00 13.1 12 Oeste 41 Oeste 0 -- -- 62
2017-08-10 01:00:00 13.9 21 Oeste 40 Noroeste 0 -- -- 56
2017-08-10 00:00:00 14.6 21 Noroeste 42 Noroeste 0 -- -- 54
2017-08-09 23:00:00 15.1 17 Noroeste 44 Noroeste 0 -- -- 53
2017-08-09 22:00:00 15.2 9 Oeste 32 Oeste 0 -- -- 54
2017-08-09 21:00:00 15.1 14 Noroeste 41 Noroeste 0 -- -- 56
2017-08-09 20:00:00 15.5 18 Noroeste 55 Noroeste 0 -- -- 57
2017-08-09 19:00:00 16.6 32 Noroeste 49 Noroeste 0 -- -- 55
2017-08-09 18:00:00 16.9 8 Este 15 Sur 0 -- -- 65
2017-08-09 17:00:00 17.5 3 Sur 18 Este 0.4 -- -- 67
2017-08-09 16:00:00 18.1 9 Este 18 Este 0 -- -- 55
2017-08-09 15:00:00 18.9 5 Este 22 Este 0 -- -- 52
2017-08-09 14:00:00 17.5 8 Este 24 Este 0 -- -- 54
2017-08-09 13:00:00 17.3 9 Nordeste 18 Nordeste 0 -- -- 54
2017-08-09 12:00:00 17 7 Este 14 Sudeste 0 -- -- 55
2017-08-09 11:00:00 16.5 4 Norte 10 Este 0 -- -- 56
2017-08-09 10:00:00 16 7 Este 12 Este 0 -- -- 58
2017-08-09 09:00:00 15.6 2 Sudeste 9 Norte 0 -- -- 60
2017-08-09 08:00:00 14 2 Norte 6 Nordeste 0 -- -- 64
2017-08-09 07:00:00 13.8 2 Este 4 Este 0 -- -- 64
2017-08-09 06:00:00 13.8 2 Sudeste 4 Sudeste 0 -- -- 66
2017-08-09 05:00:00 14.6 2 Sur 5 Este 0 -- -- 61
2017-08-09 04:00:00 15.2 5 Este 22 Oeste 0 -- -- 59
2017-08-09 03:00:00 16.1 14 Oeste 26 Oeste 0 -- -- 56
2017-08-09 02:00:00 16.9 13 Oeste 23 Oeste 0 -- -- 55
2017-08-09 01:00:00 17.9 3 Oeste 15 Norte 0 -- -- 46
2017-08-09 00:00:00 18.1 6 Noroeste 20 Noroeste 0 -- -- 46
2017-08-08 23:00:00 18.8 13 Noroeste 28 Noroeste 0 -- -- 44
2017-08-08 22:00:00 19.7 4 Este 20 Este 0 -- -- 41
2017-08-08 21:00:00 20.8 5 Este 38 Este 0 -- -- 39
2017-08-08 20:00:00 22.6 9 Este 28 Este 0 -- -- 33
2017-08-08 19:00:00 24.1 10 Este 55 Oeste 0 -- -- 32
2017-08-08 18:00:00 25 16 Sudoeste 63 Oeste 0 -- -- 32
2017-08-08 17:00:00 24.9 23 Oeste 52 Sudoeste 0 -- -- 31
2017-08-08 16:00:00 24.9 26 Noroeste 49 Oeste 0 -- -- 31
2017-08-08 15:00:00 24 16 Sudoeste 54 Oeste 0 -- -- 35
2017-08-08 14:00:00 22.5 19 Noroeste 45 Oeste 0 -- -- 40
2017-08-08 13:00:00 21.6 22 Noroeste 49 Oeste 0 -- -- 47
2017-08-08 12:00:00 20.5 20 Noroeste 46 Noroeste 0 -- -- 52
2017-08-08 11:00:00 19.7 22 Noroeste 42 Oeste 0 -- -- 57
2017-08-08 10:00:00 17.6 26 Oeste 48 Oeste 0 -- -- 65
2017-08-08 09:00:00 16.8 28 Oeste 51 Oeste 0 -- -- 69
2017-08-08 08:00:00 16.7 22 Oeste 39 Sudoeste 0 -- -- 75
2017-08-08 07:00:00 17.1 21 Oeste 62 Oeste 0 -- -- 75
2017-08-08 06:00:00 17.5 28 Oeste 58 Noroeste 0 -- -- 74
2017-08-08 05:00:00 18.8 20 Oeste 63 Oeste 0 -- -- 72
2017-08-08 04:00:00 21 38 Oeste 57 Oeste 0 -- -- 67
2017-08-08 03:00:00 29.9 11 Sudoeste 30 Sudoeste 0 -- -- 26
2017-08-08 02:00:00 29.7 16 Sudoeste 32 Sudoeste 0 -- -- 28
2017-08-08 01:00:00 29.7 17 Sudoeste 36 Sur 0 -- -- 33
2017-08-08 00:00:00 26.3 4 Sudeste 31 Este 0 -- -- 57
2017-08-07 23:00:00 25.8 12 Sudoeste 22 Sudoeste 0 -- -- 63
2017-08-07 22:00:00 26 9 Sur 19 Sudeste 0 -- -- 64
2017-08-07 21:00:00 26 14 Este 25 Sudeste 0 -- -- 66
2017-08-07 20:00:00 28.2 10 Este 31 Este 0 -- -- 59
2017-08-07 19:00:00 30.1 15 Este 41 Este 0 -- -- 52
2017-08-07 18:00:00 30.2 21 Este 42 Este 0 -- -- 54
2017-08-07 17:00:00 31.1 30 Este 50 Este 0 -- -- 50
2017-08-07 16:00:00 31.9 23 Este 38 Este 0 -- -- 48
2017-08-07 15:00:00 32.7 20 Este 37 Este 0 -- -- 41
2017-08-07 14:00:00 32.1 15 Este 29 Este 0 -- -- 41
2017-08-07 13:00:00 31.3 15 Este 28 Nordeste 0 -- -- 40
2017-08-07 12:00:00 29.3 8 Este 22 Sur 0 -- -- 46
2017-08-07 11:00:00 26.6 6 Sur 18 Sudoeste 0 -- -- 54
2017-08-07 10:00:00 24.2 5 Sudeste 13 Sudeste 0 -- -- 63
2017-08-07 09:00:00 22 5 Sudeste 11 Sudeste 0 -- -- 71
2017-08-07 08:00:00 19.1 4 Sudeste 8 Este 0 -- -- 85
2017-08-07 07:00:00 18.9 5 Este 8 Este 0 -- -- 85
2017-08-07 06:00:00 19.7 3 Sur 9 Este 0 -- -- 84
2017-08-07 05:00:00 20.4 5 Sudeste 8 Este 0 -- -- 81
2017-08-07 04:00:00 20.7 3 Sur 8 Sur 0 -- -- 81
2017-08-07 03:00:00 21.1 4 Sur 11 Sur 0 -- -- 79
2017-08-07 02:00:00 21.5 6 Sur 12 Sudeste 0 -- -- 78
2017-08-07 01:00:00 21.8 8 Este 15 Sudeste 0 -- -- 77
2017-08-07 00:00:00 22.4 8 Este 13 Este 0 -- -- 75
2017-08-06 23:00:00 22.8 9 Este 20 Sudeste 0 -- -- 73
2017-08-06 22:00:00 23 12 Este 23 Sudeste 0 -- -- 72
2017-08-06 21:00:00 24.2 9 Sudeste 23 Este 0 -- -- 67
2017-08-06 20:00:00 25.8 14 Este 27 Este 0 -- -- 62
2017-08-06 19:00:00 27 17 Este 32 Este 0 -- -- 58
2017-08-06 18:00:00 27.9 24 Este 37 Este 0 -- -- 54
2017-08-06 17:00:00 28.2 19 Este 33 Este 0 -- -- 55
2017-08-06 16:00:00 28.5 13 Nordeste 33 Este 0 -- -- 48
2017-08-06 15:00:00 27.8 7 Este 22 Este 0 -- -- 48
2017-08-06 14:00:00 25.7 8 Norte 15 Norte 0 -- -- 50
2017-08-06 13:00:00 24.1 7 Este 19 Este 0 -- -- 51
2017-08-06 12:00:00 21.9 12 Este 26 Este 0 -- -- 55
2017-08-06 11:00:00 20.2 7 Este 14 Nordeste 0 -- -- 60
2017-08-06 10:00:00 18.9 6 Sudoeste 26 Oeste 0 -- -- 65
2017-08-06 09:00:00 17.6 7 Sudoeste 30 Oeste 0 -- -- 70
2017-08-06 08:00:00 16.2 17 Oeste 33 Oeste 0 -- -- 73
2017-08-06 07:00:00 16.3 18 Oeste 43 Oeste 0 -- -- 73
2017-08-06 06:00:00 17 21 Oeste 35 Oeste 0 -- -- 71
2017-08-06 05:00:00 17.6 21 Oeste 35 Oeste 0 -- -- 69
2017-08-06 04:00:00 18.6 13 Oeste 32 Oeste 0 -- -- 68
2017-08-06 03:00:00 19.3 19 Oeste 35 Oeste 0 -- -- 67
2017-08-06 02:00:00 20.4 10 Nordeste 23 Nordeste 0 -- -- 65
2017-08-06 01:00:00 21.8 5 Norte 34 Oeste 0 -- -- 61
2017-08-06 00:00:00 22.8 13 Noroeste 24 Noroeste 0 -- -- 58
2017-08-05 23:00:00 24.2 11 Nordeste 24 Este 0 -- -- 55
2017-08-05 22:00:00 26.7 9 Este 21 Este 0 -- -- 48
2017-08-05 21:00:00 28.1 4 Oeste 21 Norte 0 -- -- 42
2017-08-05 20:00:00 28 10 Nordeste 38 Sudoeste 0 -- -- 39
2017-08-05 19:00:00 28.1 21 Sudoeste 42 Sudoeste 0 -- -- 39
2017-08-05 18:00:00 28.5 6 Noroeste 17 Nordeste 0.2 -- -- 47
2017-08-05 17:00:00 29.8 0 Calma 46 Nordeste 0 -- -- 48
2017-08-05 16:00:00 31 6 Sudeste 30 Nordeste 0 -- -- 42
2017-08-05 15:00:00 33 10 Nordeste 32 Este 0 -- -- 38
2017-08-05 14:00:00 31.9 14 Nordeste 35 Nordeste 0 -- -- 41
2017-08-05 13:00:00 31.2 15 Nordeste 28 Nordeste 0 -- -- 42
2017-08-05 12:00:00 30.8 10 Norte 22 Nordeste 0 -- -- 41
2017-08-05 11:00:00 28.8 11 Nordeste 21 Nordeste 0 -- -- 46
2017-08-05 10:00:00 27.5 5 Norte 15 Nordeste 0 -- -- 49
2017-08-05 09:00:00 26 6 Norte 12 Noroeste 0 -- -- 52
2017-08-05 08:00:00 23.5 0 Calma 4 Este 0 -- -- 59
2017-08-05 07:00:00 24.2 2 Nordeste 11 Norte 0 -- -- 56
2017-08-05 06:00:00 24.8 0 Calma 3 Este 0 -- -- 53
2017-08-05 05:00:00 25.6 5 Este 6 Este 0 -- -- 51
2017-08-05 04:00:00 26 0 Calma 5 Oeste 0 -- -- 50
2017-08-05 03:00:00 26.7 2 Sur 5 Nordeste 0 -- -- 49
2017-08-05 02:00:00 27.3 3 Sur 4 Sur 0 -- -- 48
2017-08-05 01:00:00 27.9 3 Sudoeste 6 Sur 0 -- -- 47
2017-08-05 00:00:00 28.9 3 Sur 7 Este 0 -- -- 43
2017-08-04 23:00:00 29.7 4 Sudoeste 6 Sudoeste 0 -- -- 38
2017-08-04 22:00:00 30.7 0 Calma 13 Norte 0 -- -- 34
2017-08-04 21:00:00 31.8 5 Este 17 Este 0 -- -- 32
2017-08-04 20:00:00 33.4 8 Nordeste 23 Este 0 -- -- 31
2017-08-04 19:00:00 33.7 13 Este 27 Este 0 -- -- 32
2017-08-04 18:00:00 34.2 11 Este 44 Este 0 -- -- 31
2017-08-04 17:00:00 34.1 17 Este 43 Este 0 -- -- 31
2017-08-04 16:00:00 34.2 21 Este 36 Este 0 -- -- 30
2017-08-04 15:00:00 33.5 19 Este 39 Este 0 -- -- 32
2017-08-04 14:00:00 33.2 18 Este 30 Este 0 -- -- 32
2017-08-04 13:00:00 31.9 12 Este 26 Este 0 -- -- 38
2017-08-04 12:00:00 30.6 9 Nordeste 22 Este 0 -- -- 40
2017-08-04 11:00:00 28.9 8 Este 15 Este 0 -- -- 43
2017-08-04 10:00:00 27.1 5 Este 10 Este 0 -- -- 43
2017-08-04 09:00:00 24.6 0 Calma 7 Sudeste 0 -- -- 49
2017-08-04 08:00:00 22.3 2 Este 5 Noroeste 0 -- -- 59
2017-08-04 07:00:00 23.1 3 Noroeste 6 Oeste 0 -- -- 54
2017-08-04 06:00:00 23.3 0 Calma 9 Norte 0 -- -- 55
2017-08-04 05:00:00 24.3 2 Norte 9 Noroeste 0 -- -- 50
2017-08-04 04:00:00 24.7 2 Sur 8 Sudeste 0 -- -- 51
2017-08-04 03:00:00 24.9 5 Este 7 Este 0 -- -- 51
2017-08-04 02:00:00 25.7 3 Este 8 Sur 0 -- -- 49
2017-08-04 01:00:00 26.5 4 Sur 9 Sur 0 -- -- 46
2017-08-04 00:00:00 27.6 5 Sur 13 Sur 0 -- -- 44
2017-08-03 23:00:00 28.1 5 Sur 13 Sudeste 0 -- -- 42
2017-08-03 22:00:00 28.7 9 Este 15 Sudeste 0 -- -- 39
2017-08-03 21:00:00 30.5 8 Este 15 Este 0 -- -- 37
2017-08-03 20:00:00 32.5 7 Este 26 Este 0 -- -- 34
2017-08-03 19:00:00 34.5 9 Este 27 Este 0 -- -- 26
2017-08-03 18:00:00 34.8 8 Norte 32 Oeste 0 -- -- 26
2017-08-03 17:00:00 35.1 8 Sudoeste 31 Noroeste 0 -- -- 26
2017-08-03 16:00:00 36 9 Norte 21 Norte 0 -- -- 25
2017-08-03 15:00:00 34.1 12 Este 36 Este 0 -- -- 28
2017-08-03 14:00:00 33 20 Este 42 Este 0 -- -- 32
2017-08-03 13:00:00 32.8 18 Este 28 Este 0 -- -- 32
2017-08-03 12:00:00 32 10 Nordeste 19 Este 0 -- -- 34
2017-08-03 11:00:00 30.4 9 Este 15 Este 0 -- -- 38
2017-08-03 10:00:00 26.9 5 Este 10 Este 0 -- -- 45
2017-08-03 09:00:00 23.9 6 Este 16 Este 0 -- -- 49
2017-08-03 08:00:00 21.2 4 Este 11 Este 0 -- -- 55
2017-08-03 07:00:00 22 4 Sur 8 Oeste 0 -- -- 52
2017-08-03 06:00:00 22.9 3 Sudoeste 15 Oeste 0 -- -- 49
2017-08-03 05:00:00 23.1 7 Oeste 10 Oeste 0 -- -- 49
2017-08-03 04:00:00 23.5 5 Sur 13 Sur 0 -- -- 47
2017-08-03 03:00:00 23.9 8 Sudeste 12 Sur 0 -- -- 47
2017-08-03 02:00:00 25.8 7 Sur 17 Sur 0 -- -- 43
2017-08-03 01:00:00 26.5 6 Sur 26 Sudoeste 0 -- -- 39
2017-08-03 00:00:00 27.1 16 Sudoeste 27 Sudoeste 0 -- -- 39
2017-08-02 23:00:00 27.3 9 Sudoeste 26 Sur 0 -- -- 38
2017-08-02 22:00:00 28.3 15 Sur 29 Sudoeste 0 -- -- 36
2017-08-02 21:00:00 28.6 13 Sur 27 Sur 0 -- -- 41
2017-08-02 20:00:00 29.5 8 Sudeste 18 Sudeste 0 -- -- 44
2017-08-02 19:00:00 30 7 Sudeste 23 Sur 0 -- -- 44
2017-08-02 18:00:00 30 13 Sudeste 25 Este 0 -- -- 44
2017-08-02 17:00:00 28.8 14 Este 25 Este 0 -- -- 53
2017-08-02 16:00:00 29 6 Este 13 Este 0 -- -- 35
2017-08-02 15:00:00 29.4 5 Sur 15 Sudeste 0 -- -- 35
2017-08-02 14:00:00 26.3 9 Este 28 Sudoeste 0 -- -- 44
2017-08-02 13:00:00 26.8 26 Sudoeste 51 Sudoeste 0 -- -- 40
2017-08-02 12:00:00 28.8 42 Sudoeste 63 Sudoeste 0 -- -- 31
2017-08-02 11:00:00 27.7 4 Noroeste 16 Norte 0 -- -- 48
2017-08-02 10:00:00 22.7 3 Sur 12 Sudoeste 0 -- -- 61
2017-08-02 09:00:00 22.6 3 Oeste 17 Noroeste 0 -- -- 61
2017-08-02 08:00:00 22.5 3 Este 12 Oeste 0 -- -- 56
2017-08-02 07:00:00 21.9 3 Este 12 Noroeste 0 -- -- 59
2017-08-02 06:00:00 22.4 4 Norte 18 Norte 0 -- -- 57
2017-08-02 05:00:00 23.6 6 Norte 18 Norte 0 -- -- 52
2017-08-02 04:00:00 23.9 0 Calma 19 Sur 0 -- -- 51
2017-08-02 03:00:00 24.4 12 Sur 21 Sur 0 -- -- 50
2017-08-02 02:00:00 24.5 5 Sur 16 Sur 0 -- -- 51
2017-08-02 01:00:00 24.9 10 Sudeste 25 Sur 0 -- -- 51
2017-08-02 00:00:00 25.7 13 Sudeste 43 Sudeste 0 -- -- 47
2017-08-01 23:00:00 26.2 8 Sudeste 32 Sur 0 -- -- 46
2017-08-01 22:00:00 27.2 13 Sur 28 Sur 0 -- -- 44
2017-08-01 21:00:00 28.4 18 Sudeste 38 Sudeste 0 -- -- 40
2017-08-01 20:00:00 30.7 19 Sudeste 42 Sudoeste 0 -- -- 35
2017-08-01 19:00:00 33.3 27 Sudoeste 43 Sur -- -- -- 21
2017-08-01 18:00:00 30.3 9 Sudeste 16 Sur 0 -- -- 34
2017-08-01 17:00:00 27.6 3 Nordeste 16 Norte 0 -- -- 49
2017-08-01 16:00:00 25 10 Norte 27 Nordeste 0 -- -- 56
2017-08-01 15:00:00 22.8 10 Norte 30 Nordeste 0 -- -- 62
2017-08-01 14:00:00 23.8 7 Este 21 Nordeste 0 -- -- 60
2017-08-01 13:00:00 21.6 8 Norte 24 Norte 0 -- -- 66
2017-08-01 12:00:00 22.7 5 Norte 20 Norte 0 -- -- 65
2017-08-01 11:00:00 23 5 Norte 15 Nordeste 0 -- -- 63
2017-08-01 10:00:00 22.2 6 Este 12 Este 0 -- -- 64
2017-08-01 09:00:00 21.2 3 Nordeste 11 Norte 0 -- -- 67
2017-08-01 08:00:00 19.3 4 Norte 13 Norte 0 -- -- 74
2017-08-01 07:00:00 19 0 Calma 5 Este 0 -- -- 74
2017-08-01 06:00:00 19.4 3 Sudeste 11 Norte 0 -- -- 74
2017-08-01 05:00:00 20.7 4 Norte 26 Oeste 0 -- -- 69
2017-08-01 04:00:00 22.2 3 Noroeste 17 Norte 0 -- -- 64
2017-08-01 03:00:00 23 10 Norte 22 Noroeste 0 -- -- 63
2017-08-01 02:00:00 24.3 12 Noroeste 21 Nordeste 0 -- -- 60
2017-08-01 01:00:00 25.9 9 Este 18 Sudeste 0 -- -- 48
2017-08-01 00:00:00 26.1 7 Sudeste 18 Este 0 -- -- 53
2017-07-31 23:00:00 26.3 10 Este 17 Sudeste 0 -- -- 56
2017-07-31 22:00:00 27.2 11 Sur 23 Sudeste 0 -- -- 56
2017-07-31 21:00:00 27.9 10 Sudeste 36 Sur 0 -- -- 53
2017-07-31 20:00:00 29.4 17 Sudeste 42 Este 0 -- -- 49
2017-07-31 19:00:00 31 19 Sudeste 44 Sudeste 0 -- -- 44
2017-07-31 18:00:00 32.4 20 Sudeste 44 Sudeste 0 -- -- 41
2017-07-31 17:00:00 33 21 Sudeste 50 Sudeste 0 -- -- 41
2017-07-31 16:00:00 33.7 24 Este 58 Este 0 -- -- 40
2017-07-31 15:00:00 33.3 32 Este 49 Este 0 -- -- 37
2017-07-31 14:00:00 32.9 13 Nordeste 32 Nordeste 0 -- -- 37
2017-07-31 13:00:00 29 9 Norte 22 Nordeste 0 -- -- 46
2017-07-31 12:00:00 26.6 10 Norte 18 Norte 0 -- -- 52
2017-07-31 11:00:00 24.6 5 Norte 13 Este 0 -- -- 56
2017-07-31 10:00:00 22.4 4 Norte 12 Noroeste 0 -- -- 62
2017-07-31 09:00:00 21 2 Sudeste 8 Nordeste 0 -- -- 70
2017-07-31 08:00:00 18.8 0 Calma 6 Norte 0 -- -- 77
2017-07-31 07:00:00 18.9 0 Calma 12 Norte 0 -- -- 76
2017-07-31 06:00:00 19.6 5 Norte 14 Norte 0 -- -- 76
2017-07-31 05:00:00 20.5 5 Norte 14 Norte 0 -- -- 74
2017-07-31 04:00:00 21.9 0 Calma 19 Norte 0 -- -- 71
2017-07-31 03:00:00 23.4 10 Nordeste 30 Norte 0 -- -- 66
2017-07-31 02:00:00 26.9 9 Norte 24 Norte 0 -- -- 42
2017-07-31 01:00:00 27.6 3 Sudeste 6 Este 0 -- -- 33
2017-07-31 00:00:00 27.8 4 Sudeste 10 Sudoeste 0 -- -- 34
2017-07-30 23:00:00 28 3 Sur 20 Sur 0 -- -- 35
2017-07-30 22:00:00 27.8 7 Sudeste 25 Sur 0 -- -- 46
2017-07-30 21:00:00 29.1 11 Sudeste 26 Este 0 -- -- 49
2017-07-30 20:00:00 30 17 Sudeste 33 Este 0 -- -- 49
2017-07-30 19:00:00 30.4 19 Este 33 Este 0 -- -- 49
2017-07-30 18:00:00 31 15 Sur 30 Este 0 -- -- 50
2017-07-30 17:00:00 32.7 14 Este 33 Sudeste 0 -- -- 41
2017-07-30 16:00:00 34.7 14 Este 27 Este 0 -- -- 30
2017-07-30 15:00:00 36 10 Este 28 Este 0 -- -- 22
2017-07-30 14:00:00 34.6 8 Este 32 Este 0 -- -- 25
2017-07-30 13:00:00 32.7 10 Nordeste 25 Este 0 -- -- 31
2017-07-30 12:00:00 30.9 7 Nordeste 21 Nordeste 0 -- -- 36
2017-07-30 11:00:00 29.4 5 Nordeste 14 Norte 0 -- -- 42
2017-07-30 10:00:00 27.7 4 Norte 15 Norte 0 -- -- 43
2017-07-30 09:00:00 24.8 7 Este 11 Nordeste 0 -- -- 45
2017-07-30 08:00:00 22.4 9 Este 11 Este 0 -- -- 51
2017-07-30 07:00:00 23.3 7 Este 10 Este 0 -- -- 49
2017-07-30 06:00:00 23.5 6 Este 11 Este 0 -- -- 48
2017-07-30 05:00:00 24.5 5 Este 12 Sudoeste 0 -- -- 45
2017-07-30 04:00:00 26.6 9 Oeste 13 Oeste 0 -- -- 40
2017-07-30 03:00:00 25.6 7 Sudeste 14 Sudoeste 0 -- -- 43
2017-07-30 02:00:00 26.2 7 Sudoeste 15 Sudoeste 0 -- -- 42
2017-07-30 01:00:00 25.4 5 Sudoeste 15 Sudoeste 0 -- -- 46
2017-07-30 00:00:00 26 4 Sudeste 9 Sur 0 -- -- 60
2017-07-29 23:00:00 26.4 8 Sudoeste 14 Sudoeste 0 -- -- 60
2017-07-29 22:00:00 26.8 7 Sur 17 Oeste 0 -- -- 61
2017-07-29 21:00:00 27.9 6 Sudeste 22 Sur 0 -- -- 60
2017-07-29 20:00:00 28.7 10 Este 22 Sudeste 0 -- -- 58
2017-07-29 19:00:00 30.7 11 Sudeste 23 Sudeste 0 -- -- 53
2017-07-29 18:00:00 31.8 14 Este 27 Sudeste 0 -- -- 49
2017-07-29 17:00:00 33 19 Este 29 Este 0 -- -- 45
2017-07-29 16:00:00 33.9 14 Este 30 Este 0 -- -- 37
2017-07-29 15:00:00 33.5 9 Este 27 Este 0 -- -- 39
2017-07-29 14:00:00 31.5 9 Nordeste 26 Este 0 -- -- 44
2017-07-29 13:00:00 30.1 10 Nordeste 23 Este 0 -- -- 49
2017-07-29 12:00:00 28.4 6 Nordeste 18 Este 0 -- -- 54
2017-07-29 11:00:00 26.6 3 Norte 14 Norte 0 -- -- 59
2017-07-29 10:00:00 25.1 4 Este 9 Este 0 -- -- 60
2017-07-29 09:00:00 22.7 5 Este 7 Este 0 -- -- 65
2017-07-29 08:00:00 19.9 0 Calma 5 Este 0 -- -- 80
2017-07-29 07:00:00 20.6 0 Calma 4 Oeste 0 -- -- 78
2017-07-29 06:00:00 21 2 Oeste 4 Oeste 0 -- -- 77
2017-07-29 05:00:00 21.7 0 Calma 4 Oeste 0 -- -- 75
2017-07-29 04:00:00 23 3 Nordeste 13 Nordeste 0 -- -- 67
2017-07-29 03:00:00 23.7 2 Oeste 5 Sudeste 0 -- -- 64
2017-07-29 02:00:00 23.6 0 Calma 6 Sudoeste 0 -- -- 70
2017-07-29 01:00:00 24.4 0 Calma 6 Sur 0 -- -- 68
2017-07-29 00:00:00 25.3 4 Sur 9 Sur 0 -- -- 63
2017-07-28 23:00:00 26.1 5 Sur 13 Sur 0 -- -- 61
2017-07-28 22:00:00 26.9 5 Sudoeste 13 Sudeste 0 -- -- 56
2017-07-28 21:00:00 28.2 4 Sudeste 14 Este 0 -- -- 59
2017-07-28 20:00:00 30.4 6 Sudeste 15 Sur 0 -- -- 51
2017-07-28 19:00:00 31.9 8 Sudeste 20 Este 0 -- -- 49
2017-07-28 18:00:00 32.4 8 Nordeste 31 Este 0 -- -- 31
2017-07-28 17:00:00 32.1 12 Este 31 Este 0 -- -- 31
2017-07-28 16:00:00 31.9 14 Noroeste 23 Este 0 -- -- 35
2017-07-28 15:00:00 30.5 9 Oeste 25 Este 0 -- -- 39
2017-07-28 14:00:00 29.3 8 Norte 23 Este 0 -- -- 40
2017-07-28 13:00:00 28.3 8 Nordeste 22 Nordeste 0 -- -- 43
2017-07-28 12:00:00 27.4 9 Este 21 Este 0 -- -- 45
2017-07-28 11:00:00 26.2 6 Este 17 Este 0 -- -- 48
2017-07-28 10:00:00 24.6 3 Sudeste 8 Sudeste 0 -- -- 55
2017-07-28 09:00:00 22.9 3 Este 6 Este 0 -- -- 60
2017-07-28 08:00:00 20.4 0 Calma 7 Noroeste 0 -- -- 69
2017-07-28 07:00:00 21 0 Calma 6 Nordeste 0 -- -- 64
2017-07-28 06:00:00 21.6 4 Sudoeste 11 Oeste 0 -- -- 62
2017-07-28 05:00:00 22.7 2 Sudoeste 13 Oeste 0 -- -- 61
2017-07-28 04:00:00 23.4 0 Calma 12 Nordeste 0 -- -- 56
2017-07-28 03:00:00 24.8 5 Nordeste 9 Nordeste 0 -- -- 51
2017-07-28 02:00:00 25.7 6 Oeste 14 Noroeste 0 -- -- 53
2017-07-28 01:00:00 25.9 6 Sur 12 Sudoeste 0 -- -- 48
2017-07-28 00:00:00 26.2 7 Sudoeste 12 Sur 0 -- -- 49
2017-07-27 23:00:00 26.5 4 Sur 17 Sudeste 0 -- -- 54
2017-07-27 22:00:00 27.4 8 Este 19 Sudeste 0 -- -- 51
2017-07-27 21:00:00 28.9 7 Este 23 Este 0 -- -- 47
2017-07-27 20:00:00 30.9 12 Este 26 Este 0 -- -- 43
2017-07-27 19:00:00 33 13 Este 24 Nordeste 0 -- -- 30
2017-07-27 18:00:00 33.6 11 Sudeste 27 Este 0 -- -- 25
2017-07-27 17:00:00 33.1 15 Este 31 Este 0 -- -- 25
2017-07-27 16:00:00 33.1 14 Este 30 Este 0 -- -- 25
2017-07-27 15:00:00 32.7 15 Este 31 Este 0 -- -- 26
2017-07-27 14:00:00 32.1 10 Este 26 Este 0 -- -- 27
2017-07-27 13:00:00 30.6 6 Nordeste 16 Este 0 -- -- 30
2017-07-27 12:00:00 28.3 8 Este 14 Este 0 -- -- 34
2017-07-27 11:00:00 26.5 7 Este 12 Este 0 -- -- 33
2017-07-27 10:00:00 24.1 3 Este 8 Este 0 -- -- 45
2017-07-27 09:00:00 21.1 4 Este 8 Este 0 -- -- 52
2017-07-27 08:00:00 18.3 6 Nordeste 10 Este 0 -- -- 59
2017-07-27 07:00:00 17.7 4 Este 7 Este 0 -- -- 61
2017-07-27 06:00:00 18.5 4 Este 8 Este 0 -- -- 57
2017-07-27 05:00:00 20.1 3 Noroeste 20 Oeste 0 -- -- 44
2017-07-27 04:00:00 20.7 2 Norte 8 Este 0 -- -- 44
2017-07-27 03:00:00 21 0 Calma 16 Sudeste 0 -- -- 53
2017-07-27 02:00:00 21.6 4 Este 18 Noroeste 0 -- -- 50
2017-07-27 01:00:00 22.9 4 Sudoeste 13 Noroeste 0 -- -- 44
2017-07-27 00:00:00 23.3 5 Oeste 19 Oeste 0 -- -- 44
2017-07-26 23:00:00 23.9 5 Noroeste 12 Noroeste 0 -- -- 45
2017-07-26 22:00:00 24.7 4 Oeste 20 Oeste 0 -- -- 44
2017-07-26 21:00:00 26.1 8 Sudoeste 21 Oeste 0 -- -- 39
2017-07-26 20:00:00 28.1 7 Sudoeste 39 Oeste 0 -- -- 35
2017-07-26 19:00:00 28.4 13 Noroeste 34 Oeste 0 -- -- 34
2017-07-26 18:00:00 28.7 17 Oeste 30 Oeste 0 -- -- 33
2017-07-26 17:00:00 28.3 15 Noroeste 39 Oeste 0 -- -- 33
2017-07-26 16:00:00 27.1 19 Oeste 34 Oeste 0 -- -- 32
2017-07-26 15:00:00 27 9 Oeste 22 Sudoeste 0 -- -- 35
2017-07-26 14:00:00 26.1 11 Noroeste 38 Sudoeste 0 -- -- 35
2017-07-26 13:00:00 24.3 9 Sudeste 28 Oeste 0 -- -- 40
2017-07-26 12:00:00 21.7 15 Oeste 39 Oeste 0 -- -- 40
2017-07-26 11:00:00 20.1 8 Oeste 33 Norte 0 -- -- 44
2017-07-26 10:00:00 18.4 9 Norte 28 Nordeste 0 -- -- 49
2017-07-26 09:00:00 16.2 4 Este 8 Nordeste 0 -- -- 64
2017-07-26 08:00:00 13.7 3 Nordeste 8 Norte 0 -- -- 72
2017-07-26 07:00:00 13.4 6 Noroeste 19 Noroeste 0 -- -- 71
2017-07-26 06:00:00 13.8 2 Norte 16 Oeste 0 -- -- 69
2017-07-26 05:00:00 14.2 6 Sur 25 Oeste 0 -- -- 67
2017-07-26 04:00:00 14.4 9 Noroeste 28 Noroeste 0 -- -- 69
2017-07-26 03:00:00 14.3 6 Sudeste 33 Norte 0 -- -- 70
2017-07-26 02:00:00 15.1 11 Oeste 45 Noroeste 0 -- -- 67
2017-07-26 01:00:00 15.6 3 Sur 18 Sudoeste 0 -- -- 66
2017-07-26 00:00:00 16.5 13 Oeste 37 Oeste 0 -- -- 62
2017-07-25 23:00:00 17.7 6 Oeste 21 Oeste 0 -- -- 57
2017-07-25 22:00:00 18.5 9 Noroeste 30 Noroeste 0 -- -- 53
2017-07-25 21:00:00 20 14 Oeste 35 Oeste 0 -- -- 49
2017-07-25 20:00:00 22.5 14 Oeste 32 Noroeste 0 -- -- 43
2017-07-25 19:00:00 23.1 17 Noroeste 35 Oeste 0 -- -- 41
2017-07-25 18:00:00 24 18 Noroeste 48 Noroeste 0 -- -- 41
2017-07-25 17:00:00 23.6 19 Oeste 48 Oeste 0 -- -- 41
2017-07-25 16:00:00 23 25 Oeste 49 Oeste 0 -- -- 41
2017-07-25 15:00:00 21.9 24 Oeste 51 Noroeste 0 -- -- 43
2017-07-25 14:00:00 20.9 20 Oeste 44 Oeste 0 -- -- 45
2017-07-25 13:00:00 19.7 20 Oeste 46 Oeste 0 -- -- 50
2017-07-25 12:00:00 18.8 12 Oeste 35 Noroeste 0 -- -- 53
2017-07-25 11:00:00 16.4 7 Oeste 36 Oeste 0 -- -- 62
2017-07-25 10:00:00 15.7 16 Oeste 44 Oeste 0 -- -- 64
2017-07-25 09:00:00 15.1 18 Oeste 35 Norte 0 -- -- 67
2017-07-25 08:00:00 14.6 10 Oeste 36 Oeste 0 -- -- 70
2017-07-25 07:00:00 14.1 13 Oeste 37 Noroeste 0 -- -- 73
2017-07-25 06:00:00 14.2 6 Oeste 27 Oeste 0 -- -- 70
2017-07-25 05:00:00 14.4 8 Sur 27 Oeste 0 -- -- 72
2017-07-25 04:00:00 14.8 8 Sudoeste 36 Noroeste 0 -- -- 73
2017-07-25 03:00:00 15.2 8 Sudoeste 34 Oeste 0 -- -- 74
2017-07-25 02:00:00 15.8 7 Sur 44 Noroeste 0 -- -- 73
2017-07-25 01:00:00 16.5 13 Oeste 37 Noroeste 0 -- -- 70
2017-07-25 00:00:00 17.4 9 Oeste 37 Oeste 0 -- -- 68
2017-07-24 23:00:00 18.8 16 Oeste 40 Noroeste 0 -- -- 60
2017-07-24 22:00:00 19.8 18 Noroeste 35 Oeste 0 -- -- 56
2017-07-24 21:00:00 21.3 27 Oeste 57 Oeste 0 -- -- 50
2017-07-24 20:00:00 23.8 27 Noroeste 54 Noroeste 0 -- -- 45
2017-07-24 19:00:00 25.3 28 Noroeste 63 Oeste 0 -- -- 41
2017-07-24 18:00:00 26 17 Noroeste 56 Noroeste 0 -- -- 37
2017-07-24 17:00:00 25.9 21 Oeste 48 Noroeste 0 -- -- 39
2017-07-24 16:00:00 25.8 19 Noroeste 62 Noroeste 0 -- -- 40
2017-07-24 15:00:00 25 14 Oeste 57 Noroeste 0 -- -- 44
2017-07-24 14:00:00 22.8 24 Noroeste 44 Noroeste 0 -- -- 55
2017-07-24 13:00:00 22.4 17 Noroeste 42 Noroeste 0 -- -- 56
2017-07-24 12:00:00 21.9 14 Noroeste 41 Oeste 0 -- -- 59
2017-07-24 11:00:00 20.5 15 Noroeste 35 Oeste 0 -- -- 64
2017-07-24 10:00:00 19.1 18 Noroeste 43 Noroeste 0 -- -- 68
2017-07-24 09:00:00 18.2 16 Noroeste 33 Noroeste 0 -- -- 71
2017-07-24 08:00:00 17 18 Noroeste 39 Oeste 0 -- -- 76
2017-07-24 07:00:00 16.6 22 Oeste 46 Oeste 0 -- -- 76
2017-07-24 06:00:00 16.6 7 Sudoeste 25 Oeste 0 -- -- 75
2017-07-24 05:00:00 17 6 Sudeste 26 Nordeste 0 -- -- 70
2017-07-24 04:00:00 17.6 9 Noroeste 33 Oeste 0 -- -- 65
2017-07-24 03:00:00 18.2 13 Oeste 30 Oeste 0 -- -- 61
2017-07-24 02:00:00 19.7 8 Oeste 30 Noroeste 0 -- -- 57
2017-07-24 01:00:00 20.9 13 Noroeste 31 Noroeste 0 -- -- 56
2017-07-24 00:00:00 20.9 6 Nordeste 26 Noroeste 0 -- -- 71
2017-07-23 23:00:00 21.1 0 Calma 4 Este 0 -- -- 68
2017-07-23 22:00:00 21.4 0 Calma 13 Noroeste 0 -- -- 68
2017-07-23 21:00:00 21.6 5 Oeste 16 Nordeste 0 -- -- 65
2017-07-23 20:00:00 22.5 3 Norte 9 Norte 0 -- -- 64
2017-07-23 19:00:00 21.1 5 Sudeste 13 Este 0 -- -- 68
2017-07-23 18:00:00 19.1 8 Sur 23 Sudoeste 0 -- -- 78
2017-07-23 17:00:00 14.1 11 Oeste 47 Este 12.6 -- -- 94
2017-07-23 16:00:00 15.5 40 Noroeste 91 Noroeste 14.8 -- -- 78
2017-07-23 15:00:00 24.7 19 Este 34 Este 0 -- -- 60
2017-07-23 14:00:00 25.8 16 Este 31 Este 0 -- -- 59
2017-07-23 13:00:00 25 6 Nordeste 23 Este 0 -- -- 58
2017-07-23 12:00:00 23.2 4 Nordeste 15 Nordeste 0 -- -- 60
2017-07-23 11:00:00 21.1 5 Noroeste 13 Nordeste 0 -- -- 64
2017-07-23 10:00:00 19.3 6 Este 18 Este 0 -- -- 69
2017-07-23 09:00:00 18.8 5 Este 16 Nordeste 0 -- -- 71
2017-07-23 08:00:00 18.6 8 Este 17 Nordeste 0 -- -- 74
2017-07-23 07:00:00 19.2 5 Norte 14 Noroeste 0 -- -- 71
2017-07-23 06:00:00 19.6 6 Oeste 21 Oeste 0 -- -- 74
2017-07-23 05:00:00 20.3 11 Oeste 18 Oeste 0 -- -- 72
2017-07-23 04:00:00 20.8 6 Noroeste 18 Oeste 0 -- -- 75
2017-07-23 03:00:00 21 4 Nordeste 13 Este 0 -- -- 87
2017-07-23 02:00:00 21.3 6 Este 8 Este 0 -- -- 82
2017-07-23 01:00:00 21.5 5 Este 8 Este 0 -- -- 81
2017-07-23 00:00:00 21.8 5 Este 10 Este 0 -- -- 80
2017-07-22 23:00:00 22.4 6 Este 10 Este 0 -- -- 78
2017-07-22 22:00:00 23 8 Este 23 Sudeste 0 -- -- 76
2017-07-22 21:00:00 24.4 11 Este 25 Sur 0 -- -- 72
2017-07-22 20:00:00 25.9 14 Este 26 Este 0 -- -- 66
2017-07-22 19:00:00 27.2 11 Este 31 Este 0 -- -- 61
2017-07-22 18:00:00 27.7 14 Este 42 Este 0 -- -- 57
2017-07-22 17:00:00 29 22 Este 44 Este 0 -- -- 53
2017-07-22 16:00:00 29 19 Este 45 Este 0 -- -- 52
2017-07-22 15:00:00 28.8 13 Este 38 Este 0 -- -- 52
2017-07-22 14:00:00 27.6 15 Este 28 Este 0 -- -- 57
2017-07-22 13:00:00 27 15 Este 26 Este 0 -- -- 57
2017-07-22 12:00:00 25.1 4 Este 10 Este 0 -- -- 62
2017-07-22 11:00:00 22.6 3 Norte 8 Norte 0 -- -- 73
2017-07-22 10:00:00 20.6 3 Este 10 Este 0 -- -- 81
2017-07-22 09:00:00 19.6 0 Calma 5 Nordeste 0 -- -- 86
2017-07-22 08:00:00 17.3 2 Oeste 6 Sudoeste 0 -- -- 94
2017-07-22 07:00:00 17.3 0 Calma 7 Noroeste 0.2 -- -- 91
2017-07-22 06:00:00 17.8 5 Oeste 10 Oeste 0 -- -- 88
2017-07-22 05:00:00 19.3 3 Sudeste 23 Oeste 0 -- -- 82
2017-07-22 04:00:00 20.2 13 Oeste 20 Oeste 0 -- -- 76
2017-07-22 03:00:00 19.5 5 Nordeste 22 Noroeste 0 -- -- 80
2017-07-22 02:00:00 19.3 4 Sudeste 12 Sudeste 0 -- -- 85
2017-07-22 01:00:00 20.1 8 Sur 21 Sur 0 -- -- 83
2017-07-22 00:00:00 20.4 12 Sur 22 Sur 0 -- -- 82